createdAt,value
2023-02-11T00:00:42.436Z,-9.21
2023-02-11T00:03:09.497Z,-9.28
2023-02-11T00:05:37.596Z,-9.34
2023-02-11T00:08:04.569Z,-9.31
2023-02-11T00:10:32.323Z,-9.08
2023-02-11T00:12:58.964Z,-9.08
2023-02-11T00:15:25.786Z,-9.08
2023-02-11T00:17:52.501Z,-8.94
2023-02-11T00:20:20.239Z,-9.02
2023-02-11T00:22:46.956Z,-9.10
2023-02-11T00:25:13.625Z,-9.20
2023-02-11T00:27:40.341Z,-9.42
2023-02-11T00:30:07.556Z,-9.59
2023-02-11T00:32:34.682Z,-9.78
2023-02-11T00:35:01.337Z,-9.99
2023-02-11T00:37:28.175Z,-10.00
2023-02-11T00:39:55.087Z,-9.89
2023-02-11T00:42:21.753Z,-9.95
2023-02-11T00:44:48.442Z,-9.84
2023-02-11T00:47:15.130Z,-9.60
2023-02-11T00:49:41.940Z,-9.63
2023-02-11T00:52:08.686Z,-9.66
2023-02-11T00:54:35.624Z,-9.94
2023-02-11T00:57:02.300Z,-10.23
2023-02-11T00:59:29.162Z,-10.16
2023-02-11T01:01:56.944Z,-10.28
2023-02-11T01:04:23.706Z,-10.08
2023-02-11T01:06:50.478Z,-10.13
2023-02-11T01:09:17.157Z,-10.13
2023-02-11T01:11:44.141Z,-10.26
2023-02-11T01:14:10.838Z,-10.36
2023-02-11T01:16:37.662Z,-10.34
2023-02-11T01:19:04.583Z,-10.54
2023-02-11T01:21:31.285Z,-10.27
2023-02-11T01:23:57.988Z,-10.28
2023-02-11T01:26:24.726Z,-10.45
2023-02-11T01:28:51.513Z,-10.48
2023-02-11T01:31:18.311Z,-10.65
2023-02-11T01:33:45.105Z,-10.77
2023-02-11T01:36:12.456Z,-10.57
2023-02-11T01:38:41.057Z,-10.40
2023-02-11T01:41:11.164Z,-10.39
2023-02-11T01:43:42.503Z,-10.58
2023-02-11T01:46:34.966Z,-10.29
2023-02-11T01:49:09.380Z,-10.28
2023-02-11T01:51:46.581Z,-10.16
2023-02-11T01:54:37.181Z,-10.49
2023-02-11T01:57:24.932Z,-10.84
2023-02-11T02:00:06.738Z,-10.80
2023-02-11T02:02:45.502Z,-10.73
2023-02-11T02:05:49.107Z,-10.98
2023-02-11T02:08:44.136Z,-10.83
2023-02-11T02:11:11.059Z,-10.71
2023-02-11T02:13:38.257Z,-10.72
2023-02-11T02:16:09.797Z,-10.75
2023-02-11T02:19:08.735Z,-10.75
2023-02-11T02:22:04.578Z,-10.63
2023-02-11T02:25:10.258Z,-10.67
2023-02-11T02:28:05.323Z,-10.80
2023-02-11T02:30:46.964Z,-10.68
2023-02-11T02:33:23.123Z,-10.92
2023-02-11T02:36:07.287Z,-10.85
2023-02-11T02:38:41.083Z,-10.91
2023-02-11T02:41:11.944Z,-11.12
2023-02-11T02:43:45.733Z,-10.93
2023-02-11T02:46:19.391Z,-10.74
2023-02-11T02:48:47.464Z,-10.81
2023-02-11T02:51:42.120Z,-10.98
2023-02-11T02:54:27.192Z,-11.06
2023-02-11T02:57:18.005Z,-11.20
2023-02-11T03:00:18.004Z,-11.21
2023-02-11T03:03:09.267Z,-11.33
2023-02-11T03:05:41.827Z,-11.31
2023-02-11T03:08:15.492Z,-11.34
2023-02-11T03:10:45.880Z,-11.10
2023-02-11T03:13:17.048Z,-10.97
2023-02-11T03:15:48.688Z,-10.92
2023-02-11T03:18:18.673Z,-11.20
2023-02-11T03:20:49.698Z,-11.53
2023-02-11T03:23:25.165Z,-11.57
2023-02-11T03:26:18.399Z,-11.50
2023-02-11T03:29:22.619Z,-11.43
2023-02-11T03:32:07.567Z,-11.16
2023-02-11T03:34:47.918Z,-11.20
2023-02-11T03:37:20.395Z,-11.35
2023-02-11T03:40:15.723Z,-11.42
2023-02-11T03:42:54.282Z,-11.21
2023-02-11T03:45:23.946Z,-10.95
2023-02-11T03:48:25.387Z,-10.74
2023-02-11T03:50:54.471Z,-10.83
2023-02-11T03:53:22.407Z,-10.86
2023-02-11T03:55:52.590Z,-10.87
2023-02-11T03:58:19.718Z,-10.97
2023-02-11T04:00:46.445Z,-10.82
2023-02-11T04:03:13.724Z,-10.97
2023-02-11T04:05:41.045Z,-11.10
2023-02-11T04:08:07.819Z,-11.34
2023-02-11T04:10:34.695Z,-11.59
2023-02-11T04:13:01.537Z,-11.76
2023-02-11T04:15:28.372Z,-11.41
2023-02-11T04:17:55.021Z,-11.20
2023-02-11T04:20:21.712Z,-11.33
2023-02-11T04:22:48.449Z,-11.38
2023-02-11T04:25:15.136Z,-11.47
2023-02-11T04:27:41.797Z,-11.34
2023-02-11T04:30:09.498Z,-11.44
2023-02-11T04:32:36.203Z,-11.62
2023-02-11T04:35:03.672Z,-11.48
2023-02-11T04:37:30.456Z,-11.46
2023-02-11T04:39:57.237Z,-11.46
2023-02-11T04:42:24.763Z,-11.50
2023-02-11T04:44:52.695Z,-11.51
2023-02-11T04:47:19.566Z,-11.81
2023-02-11T04:49:46.251Z,-12.03
2023-02-11T04:52:12.921Z,-11.86
2023-02-11T04:54:39.725Z,-11.88
2023-02-11T04:57:06.440Z,-11.98
2023-02-11T04:59:33.185Z,-11.84
2023-02-11T05:02:00.102Z,-11.85
2023-02-11T05:04:26.856Z,-12.04
2023-02-11T05:06:53.504Z,-12.05
2023-02-11T05:09:20.242Z,-12.13
2023-02-11T05:11:47.012Z,-12.01
2023-02-11T05:14:13.685Z,-11.96
2023-02-11T05:16:40.383Z,-11.97
2023-02-11T05:19:07.239Z,-12.08
2023-02-11T05:21:33.995Z,-11.97
2023-02-11T05:24:00.769Z,-12.05
2023-02-11T05:26:27.614Z,-11.93
2023-02-11T05:28:54.329Z,-11.86
2023-02-11T05:31:21.098Z,-11.89
2023-02-11T05:33:47.816Z,-11.97
2023-02-11T05:36:14.941Z,-12.05
2023-02-11T05:38:42.670Z,-11.96
2023-02-11T05:41:10.595Z,-11.92
2023-02-11T05:43:37.666Z,-11.88
2023-02-11T05:46:04.910Z,-11.85
2023-02-11T05:48:32.293Z,-11.83
2023-02-11T05:50:59.358Z,-11.74
2023-02-11T05:53:26.085Z,-11.77
2023-02-11T05:55:52.969Z,-11.77
2023-02-11T05:58:19.764Z,-11.82
2023-02-11T06:00:46.406Z,-11.82
2023-02-11T06:03:13.111Z,-11.78
2023-02-11T06:05:39.849Z,-11.72
2023-02-11T06:08:06.504Z,-11.68
2023-02-11T06:10:33.186Z,-11.61
2023-02-11T06:12:59.892Z,-11.50
2023-02-11T06:15:26.628Z,-11.29
2023-02-11T06:17:53.369Z,-11.11
2023-02-11T06:20:20.783Z,-11.10
2023-02-11T06:22:47.580Z,-10.85
2023-02-11T06:25:15.055Z,-10.63
2023-02-11T06:27:41.802Z,-10.53
2023-02-11T06:30:10.308Z,-10.54
2023-02-11T06:32:44.483Z,-10.27
2023-02-11T06:35:12.787Z,-10.10
2023-02-11T06:37:40.511Z,-9.99
2023-02-11T06:40:07.573Z,-9.35
2023-02-11T06:42:36.181Z,-8.38
2023-02-11T06:45:06.109Z,-6.82
2023-02-11T06:47:33.119Z,-5.69
2023-02-11T06:50:00.240Z,-4.22
2023-02-11T06:52:26.939Z,-2.69
2023-02-11T06:54:53.597Z,-1.64
2023-02-11T06:57:20.285Z,-1.05
2023-02-11T06:59:46.961Z,-0.51
2023-02-11T07:02:13.675Z,0.65
2023-02-11T07:04:40.440Z,1.69
2023-02-11T07:07:07.116Z,2.06
2023-02-11T07:09:33.810Z,2.89
2023-02-11T07:12:00.583Z,3.17
2023-02-11T07:14:27.430Z,3.51
2023-02-11T07:16:54.273Z,3.99
2023-02-11T07:19:21.100Z,3.93
2023-02-11T07:21:48.890Z,4.69
2023-02-11T07:24:15.646Z,5.18
2023-02-11T07:26:42.814Z,4.93
2023-02-11T07:29:09.929Z,4.83
2023-02-11T07:31:36.710Z,5.09
2023-02-11T07:34:03.653Z,5.31
2023-02-11T07:36:32.127Z,5.47
2023-02-11T07:39:00.258Z,6.67
2023-02-11T07:41:27.912Z,7.10
2023-02-11T07:43:54.732Z,6.49
2023-02-11T07:46:27.073Z,6.24
2023-02-11T07:48:55.037Z,7.13
2023-02-11T07:51:24.971Z,6.27
2023-02-11T07:53:52.228Z,6.35
2023-02-11T07:56:20.549Z,6.81
2023-02-11T07:58:47.690Z,7.63
2023-02-11T08:01:18.013Z,8.27
2023-02-11T08:03:45.753Z,8.67
2023-02-11T08:06:14.793Z,9.67
2023-02-11T08:08:42.883Z,8.30
2023-02-11T08:11:17.901Z,7.35
2023-02-11T08:13:45.222Z,6.41
2023-02-11T08:16:20.142Z,7.26
2023-02-11T08:18:47.084Z,8.76
2023-02-11T08:21:13.974Z,9.72
2023-02-11T08:23:42.406Z,9.80
2023-02-11T08:26:19.273Z,10.24
2023-02-11T08:28:48.007Z,7.90
2023-02-11T08:31:20.370Z,7.65
2023-02-11T08:33:47.358Z,8.90
2023-02-11T08:36:16.039Z,8.72
2023-02-11T08:38:44.425Z,9.21
2023-02-11T08:41:11.601Z,9.11
2023-02-11T08:43:41.742Z,7.57
2023-02-11T08:46:17.409Z,9.04
2023-02-11T08:48:45.215Z,7.97
2023-02-11T08:51:21.967Z,8.56
2023-02-11T08:53:49.196Z,8.91
2023-02-11T08:56:17.037Z,9.91
2023-02-11T08:58:44.280Z,7.82
2023-02-11T09:01:12.909Z,8.42
2023-02-11T09:03:41.334Z,8.82
2023-02-11T09:06:10.473Z,8.68
2023-02-11T09:08:38.923Z,8.44
2023-02-11T09:11:06.099Z,9.29
2023-02-11T09:13:33.317Z,9.19
2023-02-11T09:16:02.436Z,9.09
2023-02-11T09:18:29.107Z,8.17
2023-02-11T09:21:06.681Z,7.65
2023-02-11T09:23:34.575Z,8.82
2023-02-11T09:26:09.553Z,9.48
2023-02-11T09:28:36.599Z,8.25
2023-02-11T09:31:08.558Z,8.45
2023-02-11T09:33:36.229Z,8.02
2023-02-11T09:36:05.420Z,6.66
2023-02-11T09:38:33.402Z,8.36
2023-02-11T09:41:02.726Z,9.37
2023-02-11T09:43:46.832Z,9.32
2023-02-11T09:46:15.982Z,8.73
2023-02-11T09:48:46.114Z,8.10
2023-02-11T09:51:48.384Z,9.14
2023-02-11T09:54:34.346Z,8.77
2023-02-11T09:57:01.196Z,9.56
2023-02-11T09:59:28.071Z,9.86
2023-02-11T10:02:17.448Z,8.74
2023-02-11T10:05:02.767Z,8.84
2023-02-11T10:07:43.277Z,9.64
2023-02-11T10:10:15.825Z,9.54
2023-02-11T10:13:02.733Z,10.40
2023-02-11T10:15:55.549Z,9.64
2023-02-11T10:18:46.785Z,10.18
2023-02-11T10:21:28.654Z,9.30
2023-02-11T10:24:00.847Z,9.05
2023-02-11T10:26:31.067Z,9.28
2023-02-11T10:29:05.643Z,9.04
2023-02-11T10:31:43.821Z,9.08
2023-02-11T10:34:12.759Z,10.14
2023-02-11T10:36:42.107Z,9.09
2023-02-11T10:39:21.081Z,9.27
2023-02-11T10:41:54.849Z,9.99
2023-02-11T10:44:27.679Z,10.48
2023-02-11T10:46:55.686Z,10.15
2023-02-11T10:49:35.844Z,10.68
2023-02-11T10:52:26.032Z,10.73
2023-02-11T10:55:01.746Z,9.44
2023-02-11T10:57:50.245Z,10.03
2023-02-11T11:00:41.073Z,9.46
2023-02-11T11:03:18.805Z,9.64
2023-02-11T11:05:51.615Z,9.32
2023-02-11T11:08:19.363Z,9.68
2023-02-11T11:11:04.013Z,9.77
2023-02-11T11:13:36.219Z,9.70
2023-02-11T11:16:12.235Z,9.17
2023-02-11T11:18:43.968Z,9.75
2023-02-11T11:21:34.456Z,10.08
2023-02-11T11:24:03.916Z,9.92
2023-02-11T11:26:42.358Z,9.77
2023-02-11T11:29:17.899Z,10.49
2023-02-11T11:31:54.797Z,9.99
2023-02-11T11:34:32.496Z,9.69
2023-02-11T11:37:02.009Z,10.60
2023-02-11T11:39:35.011Z,10.35
2023-02-11T11:42:06.116Z,9.94
2023-02-11T11:44:33.637Z,9.54
2023-02-11T11:47:12.659Z,9.92
2023-02-11T11:50:21.698Z,9.39
2023-02-11T11:52:54.247Z,9.32
2023-02-11T11:55:33.540Z,9.28
2023-02-11T11:58:00.605Z,9.68
2023-02-11T12:00:36.305Z,9.01
2023-02-11T12:03:15.037Z,9.66
2023-02-11T12:06:03.534Z,9.90
2023-02-11T12:08:51.513Z,10.04
2023-02-11T12:11:18.220Z,9.34
2023-02-11T12:13:50.625Z,9.50
2023-02-11T12:16:36.326Z,9.97
2023-02-11T12:19:32.055Z,9.78
2023-02-11T12:22:20.629Z,9.61
2023-02-11T12:24:59.175Z,9.81
2023-02-11T12:27:48.284Z,10.07
2023-02-11T12:30:40.762Z,9.38
2023-02-11T12:33:23.679Z,8.95
2023-02-11T12:35:58.995Z,9.41
2023-02-11T12:38:33.589Z,9.01
2023-02-11T12:41:46.705Z,9.10
2023-02-11T12:44:29.584Z,9.18
2023-02-11T12:47:08.454Z,9.37
2023-02-11T12:49:42.632Z,9.26
2023-02-11T12:52:27.867Z,9.01
2023-02-11T12:55:26.797Z,8.56
2023-02-11T12:57:57.345Z,7.93
2023-02-11T13:00:30.634Z,7.19
2023-02-11T13:03:12.122Z,6.81
2023-02-11T13:05:49.703Z,7.18
2023-02-11T13:08:36.745Z,7.06
2023-02-11T13:11:16.126Z,7.09
2023-02-11T13:14:02.161Z,6.77
2023-02-11T13:16:48.670Z,6.90
2023-02-11T13:19:34.908Z,6.34
2023-02-11T13:22:16.644Z,6.10
2023-02-11T13:25:02.146Z,6.03
2023-02-11T13:27:51.097Z,6.28
2023-02-11T13:30:32.720Z,6.34
2023-02-11T13:33:02.281Z,6.62
2023-02-11T13:36:04.406Z,6.41
2023-02-11T13:38:32.905Z,6.33
2023-02-11T13:41:04.545Z,6.19
2023-02-11T13:43:33.779Z,6.50
2023-02-11T13:46:04.997Z,6.46
2023-02-11T13:48:53.214Z,6.05
2023-02-11T13:51:40.422Z,6.08
2023-02-11T13:54:08.179Z,6.10
2023-02-11T13:56:40.732Z,5.94
2023-02-11T13:59:33.556Z,6.20
2023-02-11T14:02:18.961Z,6.20
2023-02-11T14:05:22.845Z,6.09
2023-02-11T14:08:29.025Z,5.97
2023-02-11T14:11:26.597Z,5.88
2023-02-11T14:13:53.233Z,5.92
2023-02-11T14:16:36.969Z,5.72
2023-02-11T14:19:04.540Z,4.76
2023-02-11T14:21:37.650Z,4.97
2023-02-11T14:24:11.749Z,4.99
2023-02-11T14:26:47.597Z,4.98
2023-02-11T14:29:32.618Z,4.97
2023-02-11T14:32:17.520Z,4.98
2023-02-11T14:35:21.618Z,5.17
2023-02-11T14:37:50.677Z,5.13
2023-02-11T14:40:49.466Z,5.07
2023-02-11T14:43:24.250Z,4.78
2023-02-11T14:45:55.687Z,4.72
2023-02-11T14:48:28.688Z,4.54
2023-02-11T14:51:02.398Z,4.45
2023-02-11T14:53:32.161Z,4.16
2023-02-11T14:55:59.311Z,3.92
2023-02-11T14:58:31.772Z,3.56
2023-02-11T15:01:06.661Z,3.01
2023-02-11T15:03:41.983Z,2.68
2023-02-11T15:06:21.467Z,2.45
2023-02-11T15:09:03.156Z,2.46
2023-02-11T15:11:34.063Z,2.33
2023-02-11T15:14:25.952Z,2.07
2023-02-11T15:16:54.996Z,2.13
2023-02-11T15:19:38.448Z,2.01
2023-02-11T15:22:08.273Z,2.01
2023-02-11T15:24:35.664Z,1.47
2023-02-11T15:27:08.379Z,1.55
2023-02-11T15:29:38.897Z,1.45
2023-02-11T15:32:12.599Z,1.19
2023-02-11T15:34:39.512Z,1.03
2023-02-11T15:37:06.463Z,0.89
2023-02-11T15:39:37.836Z,0.75
2023-02-11T15:42:23.030Z,0.44
2023-02-11T15:44:56.499Z,0.22
2023-02-11T15:47:29.638Z,0.11
2023-02-11T15:49:56.411Z,0.01
2023-02-11T15:52:26.355Z,-0.05
2023-02-11T15:54:56.213Z,-0.21
2023-02-11T15:57:23.380Z,-0.26
2023-02-11T15:59:53.429Z,-0.47
2023-02-11T16:02:34.994Z,-0.63
2023-02-11T16:05:09.693Z,-0.80
2023-02-11T16:07:50.408Z,-0.79
2023-02-11T16:10:33.549Z,-0.87
2023-02-11T16:13:06.459Z,-0.88
2023-02-11T16:15:49.896Z,-0.92
2023-02-11T16:18:37.419Z,-1.01
2023-02-11T16:21:07.851Z,-1.00
2023-02-11T16:23:37.223Z,-1.13
2023-02-11T16:26:10.793Z,-1.35
2023-02-11T16:28:38.244Z,-1.46
2023-02-11T16:31:06.129Z,-1.41
2023-02-11T16:33:33.005Z,-1.45
2023-02-11T16:36:02.221Z,-1.48
2023-02-11T16:38:30.077Z,-1.55
2023-02-11T16:40:56.783Z,-1.47
2023-02-11T16:43:23.434Z,-1.46
2023-02-11T16:45:50.647Z,-1.58
2023-02-11T16:48:19.335Z,-1.97
2023-02-11T16:50:52.835Z,-1.81
2023-02-11T16:53:25.269Z,-1.84
2023-02-11T16:55:53.227Z,-2.01
2023-02-11T16:58:20.174Z,-2.06
2023-02-11T17:00:48.418Z,-1.97
2023-02-11T17:03:21.262Z,-1.96
2023-02-11T17:05:55.384Z,-2.11
2023-02-11T17:08:22.569Z,-2.26
2023-02-11T17:10:49.736Z,-2.70
2023-02-11T17:13:16.673Z,-2.20
2023-02-11T17:15:43.567Z,-2.32
2023-02-11T17:18:13.815Z,-2.47
2023-02-11T17:20:41.723Z,-2.49
2023-02-11T17:23:09.676Z,-2.55
2023-02-11T17:25:40.618Z,-2.55
2023-02-11T17:28:09.086Z,-2.55
2023-02-11T17:30:35.915Z,-2.70
2023-02-11T17:33:02.670Z,-2.82
2023-02-11T17:35:29.274Z,-2.82
2023-02-11T17:37:56.054Z,-2.95
2023-02-11T17:40:22.858Z,-2.98
2023-02-11T17:42:50.310Z,-3.10
2023-02-11T17:45:17.180Z,-3.11
2023-02-11T17:47:43.908Z,-3.19
2023-02-11T17:50:11.104Z,-3.18
2023-02-11T17:52:38.142Z,-3.18
2023-02-11T17:55:05.961Z,-3.15
2023-02-11T17:57:32.950Z,-3.02
2023-02-11T17:59:59.640Z,-2.97
2023-02-11T18:02:26.412Z,-3.03
2023-02-11T18:04:53.404Z,-3.07
2023-02-11T18:07:20.336Z,-3.11
2023-02-11T18:09:48.100Z,-3.27
2023-02-11T18:12:15.019Z,-3.32
2023-02-11T18:14:41.764Z,-3.44
2023-02-11T18:17:08.592Z,-3.67
2023-02-11T18:19:36.677Z,-3.78
2023-02-11T18:22:04.441Z,-3.70
2023-02-11T18:24:31.456Z,-3.68
2023-02-11T18:26:58.435Z,-3.64
2023-02-11T18:29:25.390Z,-3.67
2023-02-11T18:31:55.150Z,-3.64
2023-02-11T18:34:22.276Z,-3.66
2023-02-11T18:36:52.236Z,-3.57
2023-02-11T18:39:20.232Z,-3.60
2023-02-11T18:41:46.990Z,-4.03
2023-02-11T18:44:14.324Z,-3.93
2023-02-11T18:46:41.202Z,-3.93
2023-02-11T18:49:07.963Z,-3.77
2023-02-11T18:51:34.612Z,-3.76
2023-02-11T18:54:01.800Z,-3.88
2023-02-11T18:56:28.611Z,-4.04
2023-02-11T18:58:56.660Z,-3.99
2023-02-11T19:01:27.388Z,-4.07
2023-02-11T19:03:55.848Z,-4.19
2023-02-11T19:06:27.584Z,-4.51
2023-02-11T19:08:59.341Z,-4.30
2023-02-11T19:11:46.447Z,-4.29
2023-02-11T19:14:14.695Z,-4.25
2023-02-11T19:16:43.486Z,-4.30
2023-02-11T19:19:10.538Z,-4.43
2023-02-11T19:21:37.423Z,-4.57
2023-02-11T19:24:08.374Z,-5.07
2023-02-11T19:26:36.249Z,-4.87
2023-02-11T19:29:03.974Z,-4.76
2023-02-11T19:31:41.011Z,-4.67
2023-02-11T19:34:08.374Z,-4.50
2023-02-11T19:36:35.341Z,-4.51
2023-02-11T19:39:03.057Z,-4.83
2023-02-11T19:41:30.523Z,-4.71
2023-02-11T19:43:57.576Z,-4.64
2023-02-11T19:46:25.727Z,-4.59
2023-02-11T19:48:53.230Z,-4.62
2023-02-11T19:51:20.734Z,-4.47
2023-02-11T19:53:48.330Z,-4.83
2023-02-11T19:56:15.780Z,-4.97
2023-02-11T19:58:43.790Z,-4.93
2023-02-11T20:01:13.362Z,-5.04
2023-02-11T20:03:42.580Z,-5.08
2023-02-11T20:06:15.464Z,-5.29
2023-02-11T20:08:42.090Z,-5.36
2023-02-11T20:11:15.251Z,-5.27
2023-02-11T20:13:42.536Z,-5.37
2023-02-11T20:16:13.223Z,-5.35
2023-02-11T20:18:40.879Z,-5.29
2023-02-11T20:21:29.824Z,-5.33
2023-02-11T20:23:57.195Z,-5.53
2023-02-11T20:26:30.028Z,-5.54
2023-02-11T20:28:59.003Z,-5.42
2023-02-11T20:31:25.816Z,-5.34
2023-02-11T20:33:52.681Z,-5.21
2023-02-11T20:36:22.495Z,-5.16
2023-02-11T20:38:49.776Z,-5.06
2023-02-11T20:41:19.649Z,-5.15
2023-02-11T20:43:51.909Z,-5.15
2023-02-11T20:46:22.112Z,-5.33
2023-02-11T20:48:49.299Z,-5.97
2023-02-11T20:51:20.166Z,-5.81
2023-02-11T20:53:49.960Z,-5.87
2023-02-11T20:56:22.216Z,-5.57
2023-02-11T20:58:49.786Z,-5.54
2023-02-11T21:01:20.256Z,-5.38
2023-02-11T21:03:58.857Z,-5.58
2023-02-11T21:06:30.763Z,-5.71
2023-02-11T21:08:57.727Z,-5.97
2023-02-11T21:11:24.459Z,-6.18
2023-02-11T21:13:51.171Z,-6.10
2023-02-11T21:16:20.604Z,-5.97
2023-02-11T21:18:48.362Z,-5.73
2023-02-11T21:21:15.399Z,-5.67
2023-02-11T21:23:42.050Z,-5.58
2023-02-11T21:26:09.084Z,-5.99
2023-02-11T21:28:37.990Z,-5.97
2023-02-11T21:31:06.088Z,-5.81
2023-02-11T21:33:33.806Z,-5.81
2023-02-11T21:36:03.560Z,-5.79
2023-02-11T21:38:30.964Z,-5.77
2023-02-11T21:41:04.114Z,-6.04
2023-02-11T21:43:31.388Z,-5.94
2023-02-11T21:45:58.057Z,-5.79
2023-02-11T21:48:25.937Z,-6.07
2023-02-11T21:50:53.507Z,-6.23
2023-02-11T21:53:20.530Z,-6.17
2023-02-11T21:55:47.274Z,-6.81
2023-02-11T21:58:14.250Z,-6.72
2023-02-11T22:00:41.061Z,-6.53
2023-02-11T22:03:07.826Z,-6.64
2023-02-11T22:05:34.545Z,-6.83
2023-02-11T22:08:01.267Z,-6.84
2023-02-11T22:10:27.997Z,-6.58
2023-02-11T22:12:54.672Z,-6.54
2023-02-11T22:15:21.344Z,-6.51
2023-02-11T22:17:48.011Z,-6.33
2023-02-11T22:20:16.067Z,-6.29
2023-02-11T22:22:42.724Z,-6.64
2023-02-11T22:25:09.488Z,-6.96
2023-02-11T22:27:36.136Z,-6.69
2023-02-11T22:30:02.946Z,-6.80
2023-02-11T22:32:29.683Z,-7.14
2023-02-11T22:34:57.358Z,-7.13
2023-02-11T22:37:24.021Z,-6.82
2023-02-11T22:39:50.808Z,-6.77
2023-02-11T22:42:17.490Z,-6.74
2023-02-11T22:44:44.284Z,-6.57
2023-02-11T22:47:11.086Z,-6.74
2023-02-11T22:49:41.093Z,-7.38
2023-02-11T22:52:07.901Z,-7.11
2023-02-11T22:54:36.188Z,-7.06
2023-02-11T22:57:04.907Z,-7.40
2023-02-11T22:59:31.586Z,-7.27
2023-02-11T23:01:58.554Z,-7.09
2023-02-11T23:04:25.299Z,-7.07
2023-02-11T23:06:51.998Z,-6.99
2023-02-11T23:09:18.708Z,-7.37
2023-02-11T23:11:46.969Z,-7.71
2023-02-11T23:14:13.745Z,-7.12
2023-02-11T23:16:40.496Z,-6.99
2023-02-11T23:19:10.968Z,-7.45
2023-02-11T23:21:39.341Z,-7.04
2023-02-11T23:24:12.976Z,-6.97
2023-02-11T23:26:41.095Z,-7.28
2023-02-11T23:29:08.476Z,-7.19
2023-02-11T23:31:39.866Z,-7.36
2023-02-11T23:34:08.618Z,-7.24
2023-02-11T23:36:35.792Z,-7.16
2023-02-11T23:39:02.524Z,-7.67
2023-02-11T23:41:29.326Z,-7.46
2023-02-11T23:43:57.949Z,-7.39
2023-02-11T23:46:26.440Z,-7.35
2023-02-11T23:48:53.630Z,-7.28
2023-02-11T23:51:20.873Z,-7.22
2023-02-11T23:53:49.309Z,-7.02
2023-02-11T23:56:22.230Z,-6.99
2023-02-11T23:58:50.357Z,-6.97
